createdAt,value
2018-05-19T00:00:08.816Z,13.33
2018-05-19T00:02:36.668Z,13.46
2018-05-19T00:05:04.194Z,13.50
2018-05-19T00:07:31.697Z,13.60
2018-05-19T00:09:59.545Z,13.66
2018-05-19T00:12:27.103Z,13.67
2018-05-19T00:14:54.614Z,13.62
2018-05-19T00:17:22.140Z,13.65
2018-05-19T00:19:49.650Z,13.69
2018-05-19T00:22:17.262Z,13.74
2018-05-19T00:24:44.849Z,13.79
2018-05-19T00:27:12.385Z,13.87
2018-05-19T00:29:39.893Z,13.91
2018-05-19T00:32:07.452Z,13.88
2018-05-19T00:34:35.261Z,13.90
2018-05-19T00:37:02.773Z,13.94
2018-05-19T00:39:30.602Z,13.97
2018-05-19T00:41:58.451Z,13.98
2018-05-19T00:44:26.323Z,13.79
2018-05-19T00:46:54.186Z,13.81
2018-05-19T00:49:21.687Z,13.80
2018-05-19T00:51:49.211Z,13.84
2018-05-19T00:54:16.811Z,13.90
2018-05-19T00:56:44.327Z,13.95
2018-05-19T00:59:11.852Z,13.97
2018-05-19T01:01:39.379Z,13.91
2018-05-19T01:04:06.902Z,13.90
2018-05-19T01:06:34.439Z,13.89
2018-05-19T01:09:01.983Z,13.90
2018-05-19T01:11:29.491Z,13.91
2018-05-19T01:13:57.249Z,13.97
2018-05-19T01:16:25.142Z,13.99
2018-05-19T01:18:52.989Z,14.00
2018-05-19T01:21:20.511Z,13.99
2018-05-19T01:23:48.050Z,13.98
2018-05-19T01:26:15.881Z,14.01
2018-05-19T01:28:43.391Z,14.02
2018-05-19T01:31:11.207Z,14.01
2018-05-19T01:33:38.969Z,14.02
2018-05-19T01:36:06.546Z,14.00
2018-05-19T01:38:34.100Z,14.03
2018-05-19T01:41:01.621Z,14.02
2018-05-19T01:43:29.132Z,14.04
2018-05-19T01:45:56.661Z,14.01
2018-05-19T01:48:24.198Z,13.97
2018-05-19T01:50:52.036Z,13.95
2018-05-19T01:53:19.571Z,13.97
2018-05-19T01:55:47.318Z,13.98
2018-05-19T01:58:14.847Z,13.98
2018-05-19T02:00:42.366Z,13.97
2018-05-19T02:03:10.031Z,13.96
2018-05-19T02:05:37.795Z,13.95
2018-05-19T02:08:05.313Z,13.93
2018-05-19T02:10:32.867Z,13.87
2018-05-19T02:13:00.423Z,13.89
2018-05-19T02:15:27.952Z,13.92
2018-05-19T02:17:55.471Z,13.92
2018-05-19T02:20:23.004Z,13.96
2018-05-19T02:22:50.536Z,13.98
2018-05-19T02:25:18.054Z,14.01
2018-05-19T02:27:45.607Z,14.03
2018-05-19T02:30:13.142Z,14.03
2018-05-19T02:32:40.677Z,14.05
2018-05-19T02:35:08.500Z,14.06
2018-05-19T02:37:36.028Z,14.08
2018-05-19T02:40:03.591Z,14.06
2018-05-19T02:42:31.154Z,14.07
2018-05-19T02:44:58.687Z,14.07
2018-05-19T02:47:26.218Z,14.06
2018-05-19T02:49:54.065Z,14.03
2018-05-19T02:52:21.616Z,14.02
2018-05-19T02:54:49.213Z,14.02
2018-05-19T02:57:16.739Z,14.04
2018-05-19T02:59:44.250Z,14.09
2018-05-19T03:02:11.786Z,14.11
2018-05-19T03:04:39.319Z,14.09
2018-05-19T03:07:06.860Z,14.09
2018-05-19T03:09:34.371Z,14.09
2018-05-19T03:12:01.913Z,14.10
2018-05-19T03:14:29.456Z,14.10
2018-05-19T03:16:57.004Z,14.11
2018-05-19T03:19:24.531Z,14.13
2018-05-19T03:21:52.075Z,14.16
2018-05-19T03:24:19.589Z,14.17
2018-05-19T03:26:47.142Z,14.18
2018-05-19T03:29:14.662Z,14.21
2018-05-19T03:31:42.202Z,14.20
2018-05-19T03:34:09.734Z,14.21
2018-05-19T03:36:37.292Z,14.24
2018-05-19T03:39:05.743Z,14.22
2018-05-19T03:41:33.263Z,14.23
2018-05-19T03:44:00.803Z,14.21
2018-05-19T03:46:28.328Z,14.20
2018-05-19T03:48:55.867Z,14.19
2018-05-19T03:51:23.397Z,14.20
2018-05-19T03:53:51.020Z,14.22
2018-05-19T03:56:18.485Z,14.24
2018-05-19T03:58:57.775Z,14.28
2018-05-19T04:01:36.932Z,14.25
2018-05-19T04:04:04.465Z,14.25
2018-05-19T04:06:31.990Z,14.25
2018-05-19T04:08:59.551Z,14.28
2018-05-19T04:11:27.952Z,14.28
2018-05-19T04:13:55.522Z,14.26
2018-05-19T04:16:23.058Z,14.25
2018-05-19T04:18:50.609Z,14.26
2018-05-19T04:21:18.132Z,14.29
2018-05-19T04:23:45.664Z,14.33
2018-05-19T04:26:13.427Z,14.35
2018-05-19T04:28:41.062Z,14.37
2018-05-19T04:31:08.598Z,14.40
2018-05-19T04:33:36.210Z,14.37
2018-05-19T04:36:03.779Z,14.35
2018-05-19T04:38:31.334Z,14.36
2018-05-19T04:40:58.859Z,14.36
2018-05-19T04:43:26.482Z,14.38
2018-05-19T04:45:54.232Z,14.39
2018-05-19T04:48:21.790Z,14.39
2018-05-19T04:50:49.340Z,14.41
2018-05-19T04:53:16.945Z,14.44
2018-05-19T04:55:44.456Z,14.44
2018-05-19T04:58:12.076Z,14.47
2018-05-19T05:00:39.588Z,14.54
2018-05-19T05:03:07.214Z,14.53
2018-05-19T05:05:35.004Z,14.65
2018-05-19T05:08:02.547Z,14.64
2018-05-19T05:10:30.107Z,14.66
2018-05-19T05:12:57.641Z,14.70
2018-05-19T05:15:26.260Z,14.71
2018-05-19T05:17:53.814Z,14.71
2018-05-19T05:20:21.378Z,14.69
2018-05-19T05:22:48.931Z,14.68
2018-05-19T05:25:16.465Z,14.67
2018-05-19T05:27:43.978Z,14.66
2018-05-19T05:30:11.574Z,14.69
2018-05-19T05:32:39.121Z,14.72
2018-05-19T05:35:06.662Z,14.73
2018-05-19T05:37:34.194Z,14.78
2018-05-19T05:40:02.342Z,14.79
2018-05-19T05:42:29.869Z,14.85
2018-05-19T05:44:57.395Z,14.91
2018-05-19T05:47:24.919Z,14.90
2018-05-19T05:49:52.539Z,14.93
2018-05-19T05:52:20.044Z,14.97
2018-05-19T05:54:47.851Z,15.03
2018-05-19T05:57:15.399Z,15.07
2018-05-19T05:59:43.108Z,15.15
2018-05-19T06:02:10.652Z,15.25
2018-05-19T06:04:38.248Z,15.35
2018-05-19T06:07:05.790Z,15.41
2018-05-19T06:09:33.351Z,15.45
2018-05-19T06:12:00.928Z,15.46
2018-05-19T06:14:28.449Z,15.48
2018-05-19T06:16:55.962Z,15.50
2018-05-19T06:19:23.526Z,15.62
2018-05-19T06:21:51.439Z,15.73
2018-05-19T06:24:19.542Z,15.90
2018-05-19T06:26:47.048Z,16.03
2018-05-19T06:29:14.831Z,16.21
2018-05-19T06:31:42.593Z,16.35
2018-05-19T06:34:10.116Z,16.49
2018-05-19T06:36:37.634Z,16.70
2018-05-19T06:39:06.423Z,16.84
2018-05-19T06:41:33.920Z,17.03
2018-05-19T06:44:01.458Z,17.27
2018-05-19T06:46:28.976Z,17.43
2018-05-19T06:48:56.497Z,17.72
2018-05-19T06:51:24.062Z,17.96
2018-05-19T06:53:51.588Z,18.24
2018-05-19T06:56:19.433Z,18.49
2018-05-19T06:58:46.958Z,18.80
2018-05-19T07:01:14.802Z,19.08
2018-05-19T07:03:42.724Z,19.31
2018-05-19T07:06:10.258Z,19.66
2018-05-19T07:08:37.841Z,20.00
2018-05-19T07:11:05.349Z,20.13
2018-05-19T07:13:32.855Z,19.99
2018-05-19T07:16:00.771Z,20.01
2018-05-19T07:18:28.285Z,20.19
2018-05-19T07:20:55.806Z,20.64
2018-05-19T07:23:23.334Z,20.61
2018-05-19T07:25:51.187Z,20.59
2018-05-19T07:28:18.697Z,20.79
2018-05-19T07:30:46.609Z,21.02
2018-05-19T07:33:16.767Z,21.11
2018-05-19T07:35:44.768Z,21.12
2018-05-19T07:38:12.364Z,20.98
2018-05-19T07:40:39.942Z,20.82
2018-05-19T07:43:07.829Z,20.62
2018-05-19T07:45:35.369Z,20.49
2018-05-19T07:48:03.140Z,20.18
2018-05-19T07:50:30.694Z,19.93
2018-05-19T07:52:58.559Z,20.00
2018-05-19T07:55:26.425Z,20.12
2018-05-19T07:57:53.955Z,20.35
2018-05-19T08:00:21.615Z,20.33
2018-05-19T08:02:49.133Z,20.36
2018-05-19T08:05:16.725Z,20.38
2018-05-19T08:07:44.298Z,20.48
2018-05-19T08:10:11.858Z,20.63
2018-05-19T08:12:39.416Z,20.64
2018-05-19T08:15:06.929Z,20.94
2018-05-19T08:17:34.434Z,21.24
2018-05-19T08:20:02.854Z,21.29
2018-05-19T08:22:30.914Z,21.35
2018-05-19T08:24:58.557Z,21.58
2018-05-19T08:27:26.057Z,21.77
2018-05-19T08:29:53.908Z,21.68
2018-05-19T08:32:21.428Z,21.45
2018-05-19T08:34:48.971Z,20.91
2018-05-19T08:37:17.012Z,20.53
2018-05-19T08:39:44.551Z,20.37
2018-05-19T08:42:12.325Z,20.98
2018-05-19T08:44:40.002Z,21.54
2018-05-19T08:47:07.516Z,21.77
2018-05-19T08:49:35.065Z,21.79
2018-05-19T08:52:02.655Z,21.35
2018-05-19T08:54:30.434Z,21.58
2018-05-19T08:56:57.961Z,22.00
2018-05-19T08:59:25.478Z,21.93
2018-05-19T09:01:53.219Z,21.67
2018-05-19T09:04:20.978Z,22.20
2018-05-19T09:06:48.549Z,22.12
2018-05-19T09:09:16.317Z,22.55
2018-05-19T09:11:43.852Z,22.44
2018-05-19T09:14:11.454Z,22.43
2018-05-19T09:16:39.018Z,22.26
2018-05-19T09:19:06.603Z,21.86
2018-05-19T09:21:34.450Z,22.22
2018-05-19T09:24:01.958Z,21.63
2018-05-19T09:26:29.557Z,21.56
2018-05-19T09:28:57.415Z,21.56
2018-05-19T09:31:24.939Z,21.54
2018-05-19T09:33:52.466Z,21.29
2018-05-19T09:36:22.413Z,21.33
2018-05-19T09:38:49.931Z,21.31
2018-05-19T09:41:17.459Z,21.17
2018-05-19T09:43:45.005Z,21.20
2018-05-19T09:46:13.310Z,21.36
2018-05-19T09:48:41.819Z,21.29
2018-05-19T09:51:09.545Z,21.27
2018-05-19T09:53:43.518Z,21.33
2018-05-19T09:56:11.324Z,20.73
2018-05-19T09:58:40.055Z,20.61
2018-05-19T10:01:07.645Z,20.82
2018-05-19T10:03:35.854Z,21.28
2018-05-19T10:06:03.414Z,21.51
2018-05-19T10:08:31.183Z,21.57
2018-05-19T10:10:58.728Z,21.43
2018-05-19T10:13:26.278Z,21.54
2018-05-19T10:15:53.815Z,21.17
2018-05-19T10:18:21.630Z,21.17
2018-05-19T10:20:49.173Z,21.36
2018-05-19T10:23:16.714Z,21.50
2018-05-19T10:25:44.275Z,21.48
2018-05-19T10:28:11.804Z,21.41
2018-05-19T10:30:39.412Z,21.41
2018-05-19T10:33:07.197Z,21.48
2018-05-19T10:35:34.800Z,21.55
2018-05-19T10:38:02.476Z,21.65
2018-05-19T10:40:29.973Z,21.80
2018-05-19T10:42:57.531Z,22.00
2018-05-19T10:45:25.049Z,22.03
2018-05-19T10:47:52.687Z,21.85
2018-05-19T10:50:20.240Z,22.02
2018-05-19T10:52:48.002Z,22.13
2018-05-19T10:55:15.529Z,22.12
2018-05-19T10:57:43.471Z,22.15
2018-05-19T11:00:11.025Z,21.86
2018-05-19T11:02:38.849Z,21.98
2018-05-19T11:05:06.488Z,22.12
2018-05-19T11:07:34.565Z,22.33
2018-05-19T11:10:02.202Z,22.28
2018-05-19T11:12:30.018Z,22.51
2018-05-19T11:14:57.539Z,22.49
2018-05-19T11:17:25.073Z,22.05
2018-05-19T11:19:52.649Z,21.81
2018-05-19T11:22:20.385Z,22.14
2018-05-19T11:24:47.937Z,22.23
2018-05-19T11:27:15.495Z,22.76
2018-05-19T11:29:43.026Z,22.88
2018-05-19T11:32:10.563Z,23.18
2018-05-19T11:34:38.083Z,23.35
2018-05-19T11:37:05.694Z,23.96
2018-05-19T11:39:33.212Z,24.61
2018-05-19T11:42:00.747Z,24.93
2018-05-19T11:44:28.590Z,24.97
2018-05-19T11:46:56.162Z,25.19
2018-05-19T11:49:23.697Z,24.94
2018-05-19T11:51:51.289Z,25.45
2018-05-19T11:54:18.811Z,25.99
2018-05-19T11:56:46.370Z,27.58
2018-05-19T11:59:13.908Z,29.35
2018-05-19T12:01:41.458Z,31.09
2018-05-19T12:04:09.090Z,32.91
2018-05-19T12:06:36.682Z,33.81
2018-05-19T12:09:04.231Z,33.21
2018-05-19T12:11:32.319Z,32.89
2018-05-19T12:13:59.862Z,33.64
2018-05-19T12:16:27.397Z,33.44
2018-05-19T12:18:54.940Z,34.28
2018-05-19T12:21:22.451Z,33.67
2018-05-19T12:23:50.013Z,34.29
2018-05-19T12:26:17.525Z,34.95
2018-05-19T12:28:45.326Z,36.16
2018-05-19T12:31:13.025Z,35.20
2018-05-19T12:33:40.566Z,36.83
2018-05-19T12:36:08.182Z,37.48
2018-05-19T12:38:36.089Z,38.17
2018-05-19T12:41:03.840Z,37.04
2018-05-19T12:43:31.388Z,37.23
2018-05-19T12:45:58.913Z,35.76
2018-05-19T12:48:26.730Z,36.73
2018-05-19T12:50:54.350Z,36.28
2018-05-19T12:53:21.887Z,36.82
2018-05-19T12:55:49.407Z,38.28
2018-05-19T12:58:17.803Z,38.75
2018-05-19T13:00:45.654Z,39.39
2018-05-19T13:03:13.167Z,37.77
2018-05-19T13:05:40.670Z,39.74
2018-05-19T13:08:08.222Z,39.77
2018-05-19T13:10:35.787Z,40.18
2018-05-19T13:13:03.307Z,41.71
2018-05-19T13:15:30.804Z,41.62
2018-05-19T13:17:58.331Z,41.73
2018-05-19T13:20:25.837Z,41.22
2018-05-19T13:22:53.386Z,41.88
2018-05-19T13:25:21.162Z,41.53
2018-05-19T13:27:48.691Z,40.93
2018-05-19T13:30:16.218Z,42.23
2018-05-19T13:32:43.756Z,42.12
2018-05-19T13:35:11.300Z,42.99
2018-05-19T13:37:38.844Z,43.04
2018-05-19T13:40:06.389Z,43.95
2018-05-19T13:42:33.940Z,43.55
2018-05-19T13:45:01.461Z,43.56
2018-05-19T13:47:29.039Z,43.00
2018-05-19T13:49:56.583Z,43.52
2018-05-19T13:52:24.099Z,43.10
2018-05-19T13:54:51.682Z,42.77
2018-05-19T13:57:19.188Z,42.46
2018-05-19T13:59:46.751Z,42.26
2018-05-19T14:02:14.292Z,41.14
2018-05-19T14:04:41.828Z,40.78
2018-05-19T14:07:09.351Z,40.82
2018-05-19T14:09:36.904Z,40.14
2018-05-19T14:12:04.508Z,39.25
2018-05-19T14:14:32.080Z,38.95
2018-05-19T14:16:59.754Z,38.42
2018-05-19T14:19:27.295Z,38.17
2018-05-19T14:21:54.856Z,36.49
2018-05-19T14:24:22.409Z,35.45
2018-05-19T14:26:50.147Z,34.82
2018-05-19T14:29:17.684Z,34.08
2018-05-19T14:31:45.203Z,33.47
2018-05-19T14:34:12.746Z,33.04
2018-05-19T14:36:40.528Z,32.12
2018-05-19T14:39:08.124Z,31.59
2018-05-19T14:41:35.706Z,31.22
2018-05-19T14:44:03.259Z,30.52
2018-05-19T14:46:30.769Z,30.05
2018-05-19T14:48:58.668Z,29.54
2018-05-19T14:51:26.173Z,28.85
2018-05-19T14:53:53.694Z,28.28
2018-05-19T14:56:21.189Z,27.81
2018-05-19T14:58:48.725Z,27.20
2018-05-19T15:01:16.260Z,26.74
2018-05-19T15:03:44.218Z,26.36
2018-05-19T15:06:11.737Z,25.96
2018-05-19T15:08:39.533Z,25.54
2018-05-19T15:11:07.304Z,25.19
2018-05-19T15:13:34.824Z,24.91
2018-05-19T15:16:02.326Z,24.87
2018-05-19T15:18:29.940Z,24.68
2018-05-19T15:20:57.433Z,24.65
2018-05-19T15:23:25.360Z,24.69
2018-05-19T15:25:52.911Z,24.71
2018-05-19T15:28:20.440Z,24.63
2018-05-19T15:30:48.294Z,24.42
2018-05-19T15:33:15.820Z,24.44
2018-05-19T15:35:43.737Z,24.36
2018-05-19T15:38:11.599Z,24.38
2018-05-19T15:40:39.110Z,24.37
2018-05-19T15:43:06.617Z,24.36
2018-05-19T15:45:34.149Z,24.40
2018-05-19T15:48:01.645Z,24.36
2018-05-19T15:50:29.199Z,24.28
2018-05-19T15:52:56.715Z,24.19
2018-05-19T15:55:24.241Z,24.28
2018-05-19T15:57:51.753Z,23.94
2018-05-19T16:00:19.535Z,23.71
2018-05-19T16:02:47.046Z,23.59
2018-05-19T16:05:14.579Z,23.55
2018-05-19T16:07:42.419Z,23.57
2018-05-19T16:10:09.963Z,23.47
2018-05-19T16:12:37.588Z,23.51
2018-05-19T16:15:05.127Z,23.32
2018-05-19T16:17:32.723Z,23.36
2018-05-19T16:20:00.248Z,23.25
2018-05-19T16:22:27.760Z,23.19
2018-05-19T16:24:55.341Z,23.11
2018-05-19T16:27:22.854Z,23.06
2018-05-19T16:29:50.794Z,23.07
2018-05-19T16:32:18.322Z,23.17
2018-05-19T16:34:45.850Z,23.09
2018-05-19T16:37:13.399Z,23.00
2018-05-19T16:39:40.930Z,22.99
2018-05-19T16:42:08.446Z,22.89
2018-05-19T16:44:36.016Z,22.87
2018-05-19T16:47:03.542Z,22.82
2018-05-19T16:49:31.066Z,22.69
2018-05-19T16:51:58.571Z,22.67
2018-05-19T16:54:26.166Z,22.69
2018-05-19T16:56:53.626Z,22.60
2018-05-19T16:59:22.542Z,22.54
2018-05-19T17:01:50.077Z,22.56
2018-05-19T17:04:17.678Z,22.39
2018-05-19T17:06:45.193Z,22.22
2018-05-19T17:09:12.724Z,22.26
2018-05-19T17:11:40.283Z,22.17
2018-05-19T17:14:08.096Z,22.14
2018-05-19T17:16:35.733Z,22.12
2018-05-19T17:19:03.270Z,22.10
2018-05-19T17:21:31.006Z,22.12
2018-05-19T17:23:58.850Z,22.19
2018-05-19T17:26:26.579Z,22.10
2018-05-19T17:28:54.483Z,22.00
2018-05-19T17:31:22.356Z,21.88
2018-05-19T17:33:49.940Z,21.86
2018-05-19T17:36:17.717Z,21.77
2018-05-19T17:38:45.842Z,21.67
2018-05-19T17:41:13.392Z,21.63
2018-05-19T17:43:40.913Z,21.67
2018-05-19T17:46:08.483Z,21.58
2018-05-19T17:48:36.021Z,21.56
2018-05-19T17:51:03.539Z,21.46
2018-05-19T17:53:31.171Z,21.45
2018-05-19T17:55:58.709Z,21.41
2018-05-19T17:58:26.226Z,21.39
2018-05-19T18:00:53.929Z,21.34
2018-05-19T18:03:21.666Z,21.28
2018-05-19T18:05:49.284Z,21.27
2018-05-19T18:08:16.855Z,21.24
2018-05-19T18:10:44.428Z,21.16
2018-05-19T18:13:11.992Z,21.13
2018-05-19T18:15:39.512Z,21.12
2018-05-19T18:18:07.026Z,21.11
2018-05-19T18:20:34.594Z,21.07
2018-05-19T18:23:02.114Z,21.01
2018-05-19T18:25:29.723Z,20.95
2018-05-19T18:27:57.307Z,20.92
2018-05-19T18:30:24.863Z,20.91
2018-05-19T18:32:52.710Z,20.88
2018-05-19T18:35:20.388Z,20.85
2018-05-19T18:37:47.916Z,20.85
2018-05-19T18:40:15.458Z,20.83
2018-05-19T18:42:42.990Z,20.78
2018-05-19T18:45:10.538Z,20.80
2018-05-19T18:47:38.083Z,20.73
2018-05-19T18:50:05.802Z,20.74
2018-05-19T18:52:33.411Z,20.66
2018-05-19T18:55:00.957Z,20.61
2018-05-19T18:57:28.830Z,20.60
2018-05-19T18:59:56.363Z,20.58
2018-05-19T19:02:23.909Z,20.56
2018-05-19T19:04:51.721Z,20.58
2018-05-19T19:07:19.326Z,20.49
2018-05-19T19:09:47.048Z,20.40
2018-05-19T19:12:14.667Z,20.43
2018-05-19T19:14:42.262Z,20.34
2018-05-19T19:17:09.934Z,20.28
2018-05-19T19:19:37.587Z,20.20
2018-05-19T19:22:05.256Z,20.18
2018-05-19T19:24:32.809Z,20.19
2018-05-19T19:27:00.553Z,20.13
2018-05-19T19:29:28.055Z,20.10
2018-05-19T19:31:55.712Z,20.03
2018-05-19T19:34:23.368Z,19.98
2018-05-19T19:36:50.999Z,19.98
2018-05-19T19:39:18.527Z,19.99
2018-05-19T19:41:46.066Z,19.90
2018-05-19T19:44:13.589Z,19.83
2018-05-19T19:46:41.140Z,19.80
2018-05-19T19:49:08.957Z,19.83
2018-05-19T19:51:36.506Z,19.72
2018-05-19T19:54:04.094Z,19.71
2018-05-19T19:56:31.723Z,19.73
2018-05-19T19:59:00.183Z,19.63
2018-05-19T20:01:27.751Z,19.56
2018-05-19T20:03:55.307Z,19.55
2018-05-19T20:06:22.892Z,19.52
2018-05-19T20:08:50.447Z,19.49
2018-05-19T20:11:18.387Z,19.53
2018-05-19T20:13:45.937Z,19.45
2018-05-19T20:16:13.841Z,19.41
2018-05-19T20:18:41.410Z,19.37
2018-05-19T20:21:08.958Z,19.27
2018-05-19T20:23:36.518Z,19.23
2018-05-19T20:26:04.127Z,19.19
2018-05-19T20:28:31.668Z,19.14
2018-05-19T20:30:59.209Z,19.14
2018-05-19T20:33:26.731Z,19.09
2018-05-19T20:35:55.196Z,19.05
2018-05-19T20:38:22.885Z,19.00
2018-05-19T20:40:50.673Z,18.97
2018-05-19T20:43:18.190Z,18.92
2018-05-19T20:45:45.707Z,18.89
2018-05-19T20:48:13.443Z,18.89
2018-05-19T20:50:41.090Z,18.84
2018-05-19T20:53:08.656Z,18.82
2018-05-19T20:55:36.177Z,18.77
2018-05-19T20:58:04.025Z,18.79
2018-05-19T21:00:31.596Z,18.77
2018-05-19T21:02:59.350Z,18.77
2018-05-19T21:05:26.887Z,18.72
2018-05-19T21:07:54.521Z,18.65
2018-05-19T21:10:22.161Z,18.64
2018-05-19T21:15:21.318Z,18.57
2018-05-19T21:17:48.915Z,18.55
2018-05-19T21:20:16.466Z,18.57
2018-05-19T21:22:44.320Z,18.53
2018-05-19T21:25:11.847Z,18.42
2018-05-19T21:27:39.528Z,18.37
2018-05-19T21:30:07.186Z,18.34
2018-05-19T21:32:35.457Z,18.32
2018-05-19T21:35:03.243Z,18.27
2018-05-19T21:37:31.499Z,18.18
2018-05-19T21:39:59.019Z,18.14
2018-05-19T21:42:26.553Z,18.09
2018-05-19T21:44:54.055Z,18.14
2018-05-19T21:47:22.150Z,18.18
2018-05-19T21:49:49.744Z,18.12
2018-05-19T21:52:18.159Z,18.07
2018-05-19T21:54:45.648Z,18.03
2018-05-19T21:57:13.671Z,18.03
2018-05-19T21:59:41.184Z,17.96
2018-05-19T22:02:08.704Z,17.91
2018-05-19T22:04:36.219Z,17.91
2018-05-19T22:07:04.182Z,17.89
2018-05-19T22:09:32.036Z,17.90
2018-05-19T22:11:59.557Z,17.89
2018-05-19T22:14:27.121Z,17.87
2018-05-19T22:16:54.619Z,17.83
2018-05-19T22:19:22.150Z,17.77
2018-05-19T22:21:50.112Z,17.75
2018-05-19T22:24:17.648Z,17.70
2018-05-19T22:26:45.617Z,17.73
2018-05-19T22:29:13.192Z,17.65
2018-05-19T22:31:40.734Z,17.55
2018-05-19T22:34:08.276Z,17.48
2018-05-19T22:36:35.811Z,17.44
2018-05-19T22:39:04.375Z,17.46
2018-05-19T22:41:31.890Z,17.44
2018-05-19T22:43:59.667Z,17.37
2018-05-19T22:46:27.439Z,17.31
2018-05-19T22:48:54.969Z,17.25
2018-05-19T22:51:23.089Z,17.21
2018-05-19T22:53:50.632Z,17.21
2018-05-19T22:56:18.167Z,17.18
2018-05-19T22:58:45.745Z,17.06
2018-05-19T23:01:13.281Z,16.96
2018-05-19T23:03:40.825Z,16.89
2018-05-19T23:06:08.359Z,16.82
2018-05-19T23:08:35.884Z,16.81
2018-05-19T23:11:03.426Z,16.80
2018-05-19T23:13:31.035Z,16.73
2018-05-19T23:15:59.446Z,16.72
2018-05-19T23:18:26.986Z,16.73
2018-05-19T23:20:54.511Z,16.68
2018-05-19T23:23:22.040Z,16.59
2018-05-19T23:25:49.549Z,16.59
2018-05-19T23:28:17.084Z,16.64
2018-05-19T23:30:44.599Z,16.62
2018-05-19T23:33:12.314Z,16.59
2018-05-19T23:35:39.960Z,16.52
2018-05-19T23:38:08.242Z,16.50
2018-05-19T23:40:36.019Z,16.45
2018-05-19T23:43:03.544Z,16.38
2018-05-19T23:45:31.304Z,16.35
2018-05-19T23:47:58.819Z,16.32
2018-05-19T23:50:26.338Z,16.28
2018-05-19T23:52:53.898Z,16.28
2018-05-19T23:55:22.132Z,16.26
2018-05-19T23:57:49.680Z,16.18
